sensor_id;sensor_type;location;lat;lon;timestamp;P1;durP1;ratioP1;P2;durP2;ratioP2
52718;SDS011;38616;42.140;24.760;2022-11-28T00:02:07;10.43;;;5.55;;
52718;SDS011;38616;42.140;24.760;2022-11-28T00:04:33;12.43;;;5.40;;
52718;SDS011;38616;42.140;24.760;2022-11-28T00:06:58;10.30;;;5.10;;
52718;SDS011;38616;42.140;24.760;2022-11-28T00:09:24;10.88;;;5.30;;
52718;SDS011;38616;42.140;24.760;2022-11-28T00:11:49;8.88;;;4.47;;
52718;SDS011;38616;42.140;24.760;2022-11-28T00:14:15;12.05;;;5.50;;
52718;SDS011;38616;42.140;24.760;2022-11-28T00:16:42;12.77;;;5.80;;
52718;SDS011;38616;42.140;24.760;2022-11-28T00:19:09;10.35;;;5.20;;
52718;SDS011;38616;42.140;24.760;2022-11-28T00:21:36;8.57;;;4.35;;
52718;SDS011;38616;42.140;24.760;2022-11-28T00:24:01;13.80;;;6.30;;
52718;SDS011;38616;42.140;24.760;2022-11-28T00:26:32;10.82;;;5.38;;
52718;SDS011;38616;42.140;24.760;2022-11-28T00:28:59;11.20;;;5.28;;
52718;SDS011;38616;42.140;24.760;2022-11-28T00:31:27;11.82;;;5.65;;
52718;SDS011;38616;42.140;24.760;2022-11-28T00:33:55;13.32;;;6.35;;
52718;SDS011;38616;42.140;24.760;2022-11-28T00:36:21;11.88;;;6.30;;
52718;SDS011;38616;42.140;24.760;2022-11-28T00:38:47;14.13;;;6.13;;
52718;SDS011;38616;42.140;24.760;2022-11-28T00:41:14;14.75;;;6.53;;
52718;SDS011;38616;42.140;24.760;2022-11-28T00:43:41;13.32;;;6.05;;
52718;SDS011;38616;42.140;24.760;2022-11-28T00:46:08;9.43;;;4.40;;
52718;SDS011;38616;42.140;24.760;2022-11-28T00:48:35;12.85;;;5.88;;
52718;SDS011;38616;42.140;24.760;2022-11-28T00:51:11;11.73;;;5.32;;
52718;SDS011;38616;42.140;24.760;2022-11-28T00:53:37;12.95;;;6.03;;
52718;SDS011;38616;42.140;24.760;2022-11-28T00:56:07;11.57;;;5.75;;
52718;SDS011;38616;42.140;24.760;2022-11-28T00:58:34;12.75;;;6.22;;
52718;SDS011;38616;42.140;24.760;2022-11-28T01:01:05;12.18;;;5.85;;
52718;SDS011;38616;42.140;24.760;2022-11-28T01:03:32;14.75;;;6.45;;
52718;SDS011;38616;42.140;24.760;2022-11-28T01:05:57;12.45;;;5.90;;
52718;SDS011;38616;42.140;24.760;2022-11-28T01:08:23;14.63;;;6.35;;
52718;SDS011;38616;42.140;24.760;2022-11-28T01:10:48;16.10;;;6.03;;
52718;SDS011;38616;42.140;24.760;2022-11-28T01:13:14;12.98;;;6.03;;
52718;SDS011;38616;42.140;24.760;2022-11-28T01:15:40;15.55;;;6.35;;
52718;SDS011;38616;42.140;24.760;2022-11-28T01:18:06;13.77;;;5.53;;
52718;SDS011;38616;42.140;24.760;2022-11-28T01:20:31;13.43;;;6.53;;
52718;SDS011;38616;42.140;24.760;2022-11-28T01:22:57;10.40;;;6.05;;
52718;SDS011;38616;42.140;24.760;2022-11-28T01:25:22;13.43;;;6.15;;
52718;SDS011;38616;42.140;24.760;2022-11-28T01:27:48;12.55;;;5.72;;
52718;SDS011;38616;42.140;24.760;2022-11-28T01:30:13;11.95;;;6.07;;
52718;SDS011;38616;42.140;24.760;2022-11-28T01:32:39;13.90;;;5.63;;
52718;SDS011;38616;42.140;24.760;2022-11-28T01:35:04;13.38;;;6.55;;
52718;SDS011;38616;42.140;24.760;2022-11-28T01:37:30;14.45;;;5.78;;
52718;SDS011;38616;42.140;24.760;2022-11-28T01:39:55;12.52;;;5.85;;
52718;SDS011;38616;42.140;24.760;2022-11-28T01:42:21;11.88;;;5.90;;
52718;SDS011;38616;42.140;24.760;2022-11-28T01:47:12;10.63;;;5.78;;
52718;SDS011;38616;42.140;24.760;2022-11-28T01:49:39;9.27;;;5.85;;
52718;SDS011;38616;42.140;24.760;2022-11-28T01:52:10;10.80;;;5.07;;
52718;SDS011;38616;42.140;24.760;2022-11-28T01:54:39;14.85;;;5.13;;
52718;SDS011;38616;42.140;24.760;2022-11-28T01:57:10;11.77;;;5.00;;
52718;SDS011;38616;42.140;24.760;2022-11-28T01:59:42;10.48;;;5.07;;
52718;SDS011;38616;42.140;24.760;2022-11-28T02:02:14;13.50;;;5.70;;
52718;SDS011;38616;42.140;24.760;2022-11-28T02:04:44;11.93;;;4.85;;
52718;SDS011;38616;42.140;24.760;2022-11-28T02:07:11;9.45;;;4.88;;
52718;SDS011;38616;42.140;24.760;2022-11-28T02:09:37;12.75;;;5.22;;
52718;SDS011;38616;42.140;24.760;2022-11-28T02:26:50;10.27;;;5.07;;
52718;SDS011;38616;42.140;24.760;2022-11-28T02:46:27;9.02;;;5.30;;
52718;SDS011;38616;42.140;24.760;2022-11-28T02:48:59;12.20;;;6.28;;
52718;SDS011;38616;42.140;24.760;2022-11-28T02:51:33;12.57;;;5.55;;
52718;SDS011;38616;42.140;24.760;2022-11-28T02:54:03;13.70;;;6.25;;
52718;SDS011;38616;42.140;24.760;2022-11-28T02:56:32;11.55;;;5.80;;
52718;SDS011;38616;42.140;24.760;2022-11-28T02:58:57;14.95;;;7.72;;
52718;SDS011;38616;42.140;24.760;2022-11-28T03:01:30;16.13;;;6.50;;
52718;SDS011;38616;42.140;24.760;2022-11-28T03:10:04;14.77;;;6.03;;
52718;SDS011;38616;42.140;24.760;2022-11-28T03:19:50;13.98;;;6.22;;
52718;SDS011;38616;42.140;24.760;2022-11-28T03:27:33;13.25;;;5.97;;
52718;SDS011;38616;42.140;24.760;2022-11-28T03:33:03;13.75;;;6.55;;
52718;SDS011;38616;42.140;24.760;2022-11-28T03:35:32;16.08;;;6.85;;
52718;SDS011;38616;42.140;24.760;2022-11-28T03:38:06;15.80;;;6.60;;
52718;SDS011;38616;42.140;24.760;2022-11-28T03:40:41;15.13;;;7.38;;
52718;SDS011;38616;42.140;24.760;2022-11-28T03:43:11;14.40;;;7.15;;
52718;SDS011;38616;42.140;24.760;2022-11-28T03:45:42;13.88;;;6.57;;
52718;SDS011;38616;42.140;24.760;2022-11-28T03:48:15;13.73;;;6.82;;
52718;SDS011;38616;42.140;24.760;2022-11-28T03:51:19;16.77;;;7.22;;
52718;SDS011;38616;42.140;24.760;2022-11-28T03:53:53;13.07;;;5.75;;
52718;SDS011;38616;42.140;24.760;2022-11-28T03:56:29;13.57;;;6.60;;
52718;SDS011;38616;42.140;24.760;2022-11-28T03:59:03;15.67;;;6.93;;
52718;SDS011;38616;42.140;24.760;2022-11-28T04:09:48;13.05;;;6.43;;
52718;SDS011;38616;42.140;24.760;2022-11-28T04:12:20;12.23;;;5.75;;
52718;SDS011;38616;42.140;24.760;2022-11-28T04:14:54;14.75;;;6.43;;
52718;SDS011;38616;42.140;24.760;2022-11-28T04:17:40;11.85;;;5.97;;
52718;SDS011;38616;42.140;24.760;2022-11-28T04:20:33;11.88;;;5.93;;
52718;SDS011;38616;42.140;24.760;2022-11-28T04:23:06;17.77;;;7.35;;
52718;SDS011;38616;42.140;24.760;2022-11-28T04:25:36;12.70;;;6.22;;
52718;SDS011;38616;42.140;24.760;2022-11-28T04:28:08;13.02;;;6.00;;
52718;SDS011;38616;42.140;24.760;2022-11-28T04:30:38;16.30;;;7.55;;
52718;SDS011;38616;42.140;24.760;2022-11-28T04:33:07;16.73;;;7.63;;
52718;SDS011;38616;42.140;24.760;2022-11-28T04:35:36;12.57;;;6.15;;
52718;SDS011;38616;42.140;24.760;2022-11-28T04:38:09;12.35;;;6.35;;
52718;SDS011;38616;42.140;24.760;2022-11-28T04:40:37;17.27;;;6.75;;
52718;SDS011;38616;42.140;24.760;2022-11-28T04:43:09;11.52;;;6.20;;
52718;SDS011;38616;42.140;24.760;2022-11-28T04:45:47;10.43;;;5.28;;
52718;SDS011;38616;42.140;24.760;2022-11-28T04:48:16;14.48;;;5.80;;
52718;SDS011;38616;42.140;24.760;2022-11-28T04:50:48;12.75;;;6.10;;
52718;SDS011;38616;42.140;24.760;2022-11-28T04:53:19;13.18;;;6.15;;
52718;SDS011;38616;42.140;24.760;2022-11-28T04:55:56;12.70;;;6.50;;
52718;SDS011;38616;42.140;24.760;2022-11-28T04:58:33;10.57;;;5.32;;
52718;SDS011;38616;42.140;24.760;2022-11-28T05:01:03;9.02;;;4.13;;
52718;SDS011;38616;42.140;24.760;2022-11-28T05:03:31;6.38;;;3.63;;
52718;SDS011;38616;42.140;24.760;2022-11-28T05:05:57;10.25;;;4.68;;
52718;SDS011;38616;42.140;24.760;2022-11-28T05:08:23;7.80;;;4.65;;
52718;SDS011;38616;42.140;24.760;2022-11-28T05:10:49;10.18;;;4.88;;
52718;SDS011;38616;42.140;24.760;2022-11-28T05:13:14;9.38;;;4.47;;
52718;SDS011;38616;42.140;24.760;2022-11-28T05:15:40;11.65;;;4.90;;
52718;SDS011;38616;42.140;24.760;2022-11-28T05:18:05;9.85;;;4.68;;
52718;SDS011;38616;42.140;24.760;2022-11-28T05:20:31;12.20;;;5.22;;
52718;SDS011;38616;42.140;24.760;2022-11-28T05:22:56;10.63;;;6.13;;
52718;SDS011;38616;42.140;24.760;2022-11-28T05:25:22;15.63;;;6.13;;
52718;SDS011;38616;42.140;24.760;2022-11-28T05:27:47;14.30;;;6.18;;
52718;SDS011;38616;42.140;24.760;2022-11-28T05:30:13;13.48;;;5.57;;
52718;SDS011;38616;42.140;24.760;2022-11-28T05:32:39;11.73;;;4.90;;
52718;SDS011;38616;42.140;24.760;2022-11-28T05:35:04;12.93;;;5.93;;
52718;SDS011;38616;42.140;24.760;2022-11-28T05:37:30;14.55;;;6.03;;
52718;SDS011;38616;42.140;24.760;2022-11-28T05:39:56;12.52;;;6.32;;
52718;SDS011;38616;42.140;24.760;2022-11-28T05:42:21;13.77;;;6.35;;
52718;SDS011;38616;42.140;24.760;2022-11-28T05:44:47;13.50;;;6.20;;
52718;SDS011;38616;42.140;24.760;2022-11-28T05:47:13;15.00;;;7.28;;
52718;SDS011;38616;42.140;24.760;2022-11-28T05:49:39;16.15;;;8.00;;
52718;SDS011;38616;42.140;24.760;2022-11-28T05:52:05;14.63;;;6.43;;
52718;SDS011;38616;42.140;24.760;2022-11-28T05:54:31;15.38;;;7.50;;
52718;SDS011;38616;42.140;24.760;2022-11-28T05:56:56;18.00;;;7.65;;
52718;SDS011;38616;42.140;24.760;2022-11-28T05:59:22;14.75;;;7.53;;
52718;SDS011;38616;42.140;24.760;2022-11-28T06:01:47;14.50;;;6.68;;
52718;SDS011;38616;42.140;24.760;2022-11-28T06:04:13;14.27;;;7.35;;
52718;SDS011;38616;42.140;24.760;2022-11-28T06:06:38;14.88;;;6.95;;
52718;SDS011;38616;42.140;24.760;2022-11-28T06:09:04;13.88;;;6.70;;
52718;SDS011;38616;42.140;24.760;2022-11-28T06:11:30;15.50;;;6.53;;
52718;SDS011;38616;42.140;24.760;2022-11-28T06:13:56;12.30;;;6.40;;
52718;SDS011;38616;42.140;24.760;2022-11-28T06:16:22;11.23;;;5.88;;
52718;SDS011;38616;42.140;24.760;2022-11-28T06:19:02;22.30;;;10.48;;
52718;SDS011;38616;42.140;24.760;2022-11-28T06:21:28;18.25;;;9.10;;
52718;SDS011;38616;42.140;24.760;2022-11-28T06:23:55;15.45;;;7.10;;
52718;SDS011;38616;42.140;24.760;2022-11-28T06:26:24;15.82;;;7.45;;
52718;SDS011;38616;42.140;24.760;2022-11-28T06:28:51;13.15;;;6.70;;
52718;SDS011;38616;42.140;24.760;2022-11-28T06:31:18;14.95;;;7.07;;
52718;SDS011;38616;42.140;24.760;2022-11-28T06:33:45;14.23;;;5.50;;
52718;SDS011;38616;42.140;24.760;2022-11-28T06:36:11;14.30;;;6.53;;
52718;SDS011;38616;42.140;24.760;2022-11-28T06:38:38;15.02;;;6.10;;
52718;SDS011;38616;42.140;24.760;2022-11-28T06:41:05;11.48;;;5.72;;
52718;SDS011;38616;42.140;24.760;2022-11-28T06:43:32;13.00;;;6.57;;
52718;SDS011;38616;42.140;24.760;2022-11-28T06:45:58;13.38;;;5.93;;
52718;SDS011;38616;42.140;24.760;2022-11-28T06:48:24;13.20;;;6.30;;
52718;SDS011;38616;42.140;24.760;2022-11-28T06:50:50;14.77;;;6.38;;
52718;SDS011;38616;42.140;24.760;2022-11-28T06:53:16;15.27;;;6.63;;
52718;SDS011;38616;42.140;24.760;2022-11-28T06:55:42;14.02;;;6.60;;
52718;SDS011;38616;42.140;24.760;2022-11-28T06:58:07;14.77;;;6.55;;
52718;SDS011;38616;42.140;24.760;2022-11-28T07:00:33;14.95;;;7.00;;
52718;SDS011;38616;42.140;24.760;2022-11-28T07:02:59;15.15;;;6.85;;
52718;SDS011;38616;42.140;24.760;2022-11-28T07:05:25;14.07;;;6.88;;
52718;SDS011;38616;42.140;24.760;2022-11-28T07:07:55;15.63;;;6.97;;
52718;SDS011;38616;42.140;24.760;2022-11-28T07:10:21;18.85;;;8.65;;
52718;SDS011;38616;42.140;24.760;2022-11-28T07:12:58;17.15;;;8.20;;
52718;SDS011;38616;42.140;24.760;2022-11-28T07:15:25;13.77;;;6.40;;
52718;SDS011;38616;42.140;24.760;2022-11-28T07:17:51;17.92;;;7.70;;
52718;SDS011;38616;42.140;24.760;2022-11-28T07:20:17;15.57;;;7.30;;
52718;SDS011;38616;42.140;24.760;2022-11-28T07:22:43;17.85;;;8.43;;
52718;SDS011;38616;42.140;24.760;2022-11-28T07:25:10;14.93;;;7.20;;
52718;SDS011;38616;42.140;24.760;2022-11-28T07:27:38;15.57;;;7.22;;
52718;SDS011;38616;42.140;24.760;2022-11-28T07:30:04;16.38;;;8.50;;
52718;SDS011;38616;42.140;24.760;2022-11-28T07:32:30;16.77;;;8.02;;
52718;SDS011;38616;42.140;24.760;2022-11-28T07:34:56;14.60;;;6.80;;
52718;SDS011;38616;42.140;24.760;2022-11-28T07:37:21;17.27;;;7.50;;
52718;SDS011;38616;42.140;24.760;2022-11-28T07:39:46;14.90;;;7.15;;
52718;SDS011;38616;42.140;24.760;2022-11-28T07:42:12;13.95;;;7.00;;
52718;SDS011;38616;42.140;24.760;2022-11-28T07:44:37;14.45;;;7.40;;
52718;SDS011;38616;42.140;24.760;2022-11-28T07:47:03;16.73;;;8.32;;
52718;SDS011;38616;42.140;24.760;2022-11-28T07:49:28;26.75;;;13.57;;
52718;SDS011;38616;42.140;24.760;2022-11-28T07:51:54;16.02;;;8.80;;
52718;SDS011;38616;42.140;24.760;2022-11-28T07:54:19;15.20;;;7.95;;
52718;SDS011;38616;42.140;24.760;2022-11-28T07:56:45;15.95;;;7.50;;
52718;SDS011;38616;42.140;24.760;2022-11-28T07:59:10;14.90;;;7.38;;
52718;SDS011;38616;42.140;24.760;2022-11-28T08:01:36;16.13;;;7.55;;
52718;SDS011;38616;42.140;24.760;2022-11-28T08:04:02;11.88;;;6.53;;
52718;SDS011;38616;42.140;24.760;2022-11-28T08:06:30;14.20;;;6.57;;
52718;SDS011;38616;42.140;24.760;2022-11-28T08:08:59;13.80;;;5.72;;
52718;SDS011;38616;42.140;24.760;2022-11-28T08:11:25;12.73;;;6.28;;
52718;SDS011;38616;42.140;24.760;2022-11-28T08:13:54;13.55;;;7.28;;
52718;SDS011;38616;42.140;24.760;2022-11-28T08:16:20;17.88;;;6.50;;
52718;SDS011;38616;42.140;24.760;2022-11-28T08:21:14;11.45;;;5.28;;
52718;SDS011;38616;42.140;24.760;2022-11-28T08:23:42;12.55;;;5.75;;
52718;SDS011;38616;42.140;24.760;2022-11-28T08:26:11;18.33;;;8.93;;
52718;SDS011;38616;42.140;24.760;2022-11-28T08:28:40;16.60;;;8.85;;
52718;SDS011;38616;42.140;24.760;2022-11-28T08:31:16;11.48;;;5.60;;
52718;SDS011;38616;42.140;24.760;2022-11-28T08:33:44;14.43;;;6.30;;
52718;SDS011;38616;42.140;24.760;2022-11-28T08:36:11;8.13;;;4.60;;
52718;SDS011;38616;42.140;24.760;2022-11-28T08:38:38;13.60;;;6.75;;
52718;SDS011;38616;42.140;24.760;2022-11-28T08:41:06;12.30;;;6.55;;
52718;SDS011;38616;42.140;24.760;2022-11-28T08:43:34;13.57;;;6.03;;
52718;SDS011;38616;42.140;24.760;2022-11-28T08:46:01;11.20;;;5.57;;
52718;SDS011;38616;42.140;24.760;2022-11-28T08:48:27;11.45;;;5.80;;
52718;SDS011;38616;42.140;24.760;2022-11-28T08:50:54;15.15;;;7.95;;
52718;SDS011;38616;42.140;24.760;2022-11-28T08:53:19;13.27;;;6.43;;
52718;SDS011;38616;42.140;24.760;2022-11-28T08:55:45;11.55;;;5.82;;
52718;SDS011;38616;42.140;24.760;2022-11-28T08:58:11;16.38;;;6.75;;
52718;SDS011;38616;42.140;24.760;2022-11-28T09:00:37;14.43;;;6.50;;
52718;SDS011;38616;42.140;24.760;2022-11-28T09:03:03;12.63;;;5.55;;
52718;SDS011;38616;42.140;24.760;2022-11-28T09:05:29;16.40;;;7.85;;
52718;SDS011;38616;42.140;24.760;2022-11-28T09:07:55;9.70;;;5.03;;
52718;SDS011;38616;42.140;24.760;2022-11-28T09:10:21;12.30;;;6.15;;
52718;SDS011;38616;42.140;24.760;2022-11-28T09:12:47;26.52;;;12.00;;
52718;SDS011;38616;42.140;24.760;2022-11-28T09:15:12;28.67;;;12.52;;
52718;SDS011;38616;42.140;24.760;2022-11-28T09:17:38;35.67;;;13.95;;
52718;SDS011;38616;42.140;24.760;2022-11-28T09:20:05;30.63;;;14.52;;
52718;SDS011;38616;42.140;24.760;2022-11-28T09:22:31;20.40;;;9.63;;
52718;SDS011;38616;42.140;24.760;2022-11-28T09:24:57;23.38;;;10.13;;
52718;SDS011;38616;42.140;24.760;2022-11-28T09:27:23;23.65;;;9.32;;
52718;SDS011;38616;42.140;24.760;2022-11-28T09:29:48;14.68;;;7.05;;
52718;SDS011;38616;42.140;24.760;2022-11-28T09:32:14;12.60;;;5.72;;
52718;SDS011;38616;42.140;24.760;2022-11-28T09:34:39;15.05;;;7.43;;
52718;SDS011;38616;42.140;24.760;2022-11-28T09:37:04;21.85;;;12.70;;
52718;SDS011;38616;42.140;24.760;2022-11-28T09:39:30;21.02;;;10.85;;
52718;SDS011;38616;42.140;24.760;2022-11-28T09:45:23;13.32;;;6.35;;
52718;SDS011;38616;42.140;24.760;2022-11-28T09:47:49;17.45;;;8.70;;
52718;SDS011;38616;42.140;24.760;2022-11-28T09:50:25;19.15;;;9.70;;
52718;SDS011;38616;42.140;24.760;2022-11-28T09:55:41;11.60;;;6.45;;
52718;SDS011;38616;42.140;24.760;2022-11-28T10:03:52;12.57;;;6.32;;
52718;SDS011;38616;42.140;24.760;2022-11-28T10:09:20;13.60;;;6.90;;
52718;SDS011;38616;42.140;24.760;2022-11-28T10:12:02;10.07;;;5.82;;
52718;SDS011;38616;42.140;24.760;2022-11-28T10:22:12;12.32;;;6.03;;
52718;SDS011;38616;42.140;24.760;2022-11-28T10:24:55;12.50;;;5.97;;
52718;SDS011;38616;42.140;24.760;2022-11-28T10:27:28;17.90;;;9.23;;
52718;SDS011;38616;42.140;24.760;2022-11-28T10:30:00;14.40;;;7.28;;
52718;SDS011;38616;42.140;24.760;2022-11-28T10:32:30;11.82;;;5.97;;
52718;SDS011;38616;42.140;24.760;2022-11-28T10:35:02;12.45;;;6.38;;
52718;SDS011;38616;42.140;24.760;2022-11-28T10:37:31;12.18;;;6.28;;
52718;SDS011;38616;42.140;24.760;2022-11-28T10:54:01;11.95;;;6.93;;
52718;SDS011;38616;42.140;24.760;2022-11-28T11:00:00;7.35;;;4.80;;
52718;SDS011;38616;42.140;24.760;2022-11-28T11:02:39;11.05;;;5.53;;
52718;SDS011;38616;42.140;24.760;2022-11-28T11:05:19;9.48;;;5.10;;
52718;SDS011;38616;42.140;24.760;2022-11-28T11:07:49;9.27;;;5.35;;
52718;SDS011;38616;42.140;24.760;2022-11-28T11:12:43;8.63;;;5.53;;
52718;SDS011;38616;42.140;24.760;2022-11-28T11:15:18;7.55;;;4.43;;
52718;SDS011;38616;42.140;24.760;2022-11-28T11:17:56;7.38;;;4.03;;
52718;SDS011;38616;42.140;24.760;2022-11-28T11:22:57;7.97;;;4.70;;
52718;SDS011;38616;42.140;24.760;2022-11-28T11:25:25;8.52;;;5.00;;
52718;SDS011;38616;42.140;24.760;2022-11-28T11:27:58;7.97;;;4.90;;
52718;SDS011;38616;42.140;24.760;2022-11-28T11:32:55;10.40;;;5.13;;
52718;SDS011;38616;42.140;24.760;2022-11-28T11:35:23;12.25;;;5.95;;
52718;SDS011;38616;42.140;24.760;2022-11-28T11:37:51;11.27;;;5.63;;
52718;SDS011;38616;42.140;24.760;2022-11-28T11:40:20;10.65;;;5.68;;
52718;SDS011;38616;42.140;24.760;2022-11-28T11:42:57;13.55;;;6.85;;
52718;SDS011;38616;42.140;24.760;2022-11-28T11:45:31;10.15;;;5.72;;
52718;SDS011;38616;42.140;24.760;2022-11-28T11:47:58;15.63;;;6.53;;
52718;SDS011;38616;42.140;24.760;2022-11-28T11:50:25;21.85;;;9.20;;
52718;SDS011;38616;42.140;24.760;2022-11-28T11:55:43;22.83;;;10.20;;
52718;SDS011;38616;42.140;24.760;2022-11-28T11:58:14;15.70;;;7.63;;
52718;SDS011;38616;42.140;24.760;2022-11-28T12:00:43;13.32;;;6.57;;
52718;SDS011;38616;42.140;24.760;2022-11-28T12:03:24;9.73;;;5.93;;
52718;SDS011;38616;42.140;24.760;2022-11-28T12:05:57;12.20;;;5.68;;
52718;SDS011;38616;42.140;24.760;2022-11-28T12:08:42;14.50;;;7.57;;
52718;SDS011;38616;42.140;24.760;2022-11-28T12:11:16;21.50;;;10.45;;
52718;SDS011;38616;42.140;24.760;2022-11-28T12:13:48;22.52;;;11.77;;
52718;SDS011;38616;42.140;24.760;2022-11-28T12:19:21;27.48;;;16.30;;
52718;SDS011;38616;42.140;24.760;2022-11-28T12:25:01;14.70;;;7.90;;
52718;SDS011;38616;42.140;24.760;2022-11-28T12:36:32;13.23;;;6.10;;
52718;SDS011;38616;42.140;24.760;2022-11-28T12:39:09;13.85;;;6.57;;
52718;SDS011;38616;42.140;24.760;2022-11-28T12:41:48;10.40;;;5.72;;
52718;SDS011;38616;42.140;24.760;2022-11-28T13:00:18;16.02;;;7.95;;
52718;SDS011;38616;42.140;24.760;2022-11-28T13:02:52;11.90;;;7.03;;
52718;SDS011;38616;42.140;24.760;2022-11-28T13:16:35;16.95;;;8.32;;
52718;SDS011;38616;42.140;24.760;2022-11-28T13:22:13;18.05;;;9.75;;
52718;SDS011;38616;42.140;24.760;2022-11-28T13:35:25;28.92;;;12.65;;
52718;SDS011;38616;42.140;24.760;2022-11-28T13:40:59;30.95;;;15.02;;
52718;SDS011;38616;42.140;24.760;2022-11-28T13:46:05;17.27;;;10.18;;
52718;SDS011;38616;42.140;24.760;2022-11-28T13:53:25;14.20;;;7.57;;
52718;SDS011;38616;42.140;24.760;2022-11-28T13:55:51;15.50;;;8.40;;
52718;SDS011;38616;42.140;24.760;2022-11-28T14:06:43;13.35;;;7.55;;
52718;SDS011;38616;42.140;24.760;2022-11-28T14:15:31;14.55;;;6.43;;
52718;SDS011;38616;42.140;24.760;2022-11-28T14:25:44;12.27;;;6.63;;
52718;SDS011;38616;42.140;24.760;2022-11-28T14:33:39;13.65;;;7.80;;
52718;SDS011;38616;42.140;24.760;2022-11-28T14:47:12;20.15;;;9.40;;
52718;SDS011;38616;42.140;24.760;2022-11-28T14:49:40;21.42;;;9.07;;
52718;SDS011;38616;42.140;24.760;2022-11-28T14:52:07;13.32;;;8.07;;
52718;SDS011;38616;42.140;24.760;2022-11-28T14:54:48;15.63;;;8.43;;
52718;SDS011;38616;42.140;24.760;2022-11-28T14:57:19;25.55;;;9.77;;
52718;SDS011;38616;42.140;24.760;2022-11-28T14:59:47;21.83;;;13.10;;
52718;SDS011;38616;42.140;24.760;2022-11-28T15:04:56;14.90;;;8.23;;
52718;SDS011;38616;42.140;24.760;2022-11-28T15:07:53;15.95;;;7.88;;
52718;SDS011;38616;42.140;24.760;2022-11-28T15:10:50;18.10;;;9.48;;
52718;SDS011;38616;42.140;24.760;2022-11-28T15:16:16;17.10;;;9.65;;
52718;SDS011;38616;42.140;24.760;2022-11-28T15:18:48;18.88;;;10.02;;
52718;SDS011;38616;42.140;24.760;2022-11-28T15:21:19;17.77;;;9.88;;
52718;SDS011;38616;42.140;24.760;2022-11-28T15:23:46;19.23;;;10.65;;
52718;SDS011;38616;42.140;24.760;2022-11-28T15:26:30;20.65;;;11.20;;
52718;SDS011;38616;42.140;24.760;2022-11-28T15:29:08;22.25;;;12.57;;
52718;SDS011;38616;42.140;24.760;2022-11-28T15:31:46;20.27;;;11.38;;
52718;SDS011;38616;42.140;24.760;2022-11-28T15:37:02;18.50;;;9.45;;
52718;SDS011;38616;42.140;24.760;2022-11-28T15:39:36;17.73;;;9.73;;
52718;SDS011;38616;42.140;24.760;2022-11-28T15:42:05;14.45;;;8.23;;
52718;SDS011;38616;42.140;24.760;2022-11-28T15:44:33;17.35;;;8.52;;
52718;SDS011;38616;42.140;24.760;2022-11-28T15:47:01;19.05;;;9.18;;
52718;SDS011;38616;42.140;24.760;2022-11-28T15:49:29;19.08;;;10.75;;
52718;SDS011;38616;42.140;24.760;2022-11-28T15:56:58;14.25;;;7.22;;
52718;SDS011;38616;42.140;24.760;2022-11-28T15:59:25;15.60;;;8.10;;
52718;SDS011;38616;42.140;24.760;2022-11-28T16:01:51;15.05;;;8.65;;
52718;SDS011;38616;42.140;24.760;2022-11-28T16:04:22;16.52;;;8.45;;
52718;SDS011;38616;42.140;24.760;2022-11-28T16:06:51;21.17;;;10.40;;
52718;SDS011;38616;42.140;24.760;2022-11-28T16:11:45;18.48;;;9.80;;
52718;SDS011;38616;42.140;24.760;2022-11-28T16:14:15;20.73;;;11.13;;
52718;SDS011;38616;42.140;24.760;2022-11-28T16:16:46;17.23;;;9.13;;
52718;SDS011;38616;42.140;24.760;2022-11-28T16:19:20;17.02;;;9.10;;
52718;SDS011;38616;42.140;24.760;2022-11-28T16:21:50;17.58;;;9.00;;
52718;SDS011;38616;42.140;24.760;2022-11-28T16:24:26;16.60;;;8.60;;
52718;SDS011;38616;42.140;24.760;2022-11-28T16:26:58;16.80;;;9.05;;
52718;SDS011;38616;42.140;24.760;2022-11-28T16:29:34;13.23;;;7.75;;
52718;SDS011;38616;42.140;24.760;2022-11-28T16:32:19;14.73;;;7.38;;
52718;SDS011;38616;42.140;24.760;2022-11-28T16:34:49;14.18;;;6.97;;
52718;SDS011;38616;42.140;24.760;2022-11-28T16:37:19;15.10;;;8.80;;
52718;SDS011;38616;42.140;24.760;2022-11-28T16:40:04;17.30;;;8.50;;
52718;SDS011;38616;42.140;24.760;2022-11-28T16:42:30;19.15;;;10.38;;
52718;SDS011;38616;42.140;24.760;2022-11-28T16:47:39;36.80;;;19.38;;
52718;SDS011;38616;42.140;24.760;2022-11-28T16:52:39;23.17;;;13.10;;
52718;SDS011;38616;42.140;24.760;2022-11-28T16:57:53;20.38;;;11.13;;
52718;SDS011;38616;42.140;24.760;2022-11-28T17:00:31;21.45;;;9.93;;
52718;SDS011;38616;42.140;24.760;2022-11-28T17:02:57;20.05;;;10.73;;
52718;SDS011;38616;42.140;24.760;2022-11-28T17:05:23;21.42;;;10.55;;
52718;SDS011;38616;42.140;24.760;2022-11-28T17:07:49;17.13;;;9.38;;
52718;SDS011;38616;42.140;24.760;2022-11-28T17:10:14;16.48;;;10.05;;
52718;SDS011;38616;42.140;24.760;2022-11-28T17:12:40;28.83;;;11.75;;
52718;SDS011;38616;42.140;24.760;2022-11-28T17:15:06;60.67;;;12.50;;
52718;SDS011;38616;42.140;24.760;2022-11-28T17:17:39;14.98;;;7.90;;
52718;SDS011;38616;42.140;24.760;2022-11-28T17:20:04;15.13;;;8.40;;
52718;SDS011;38616;42.140;24.760;2022-11-28T17:22:38;18.40;;;9.93;;
52718;SDS011;38616;42.140;24.760;2022-11-28T17:25:06;20.65;;;11.75;;
52718;SDS011;38616;42.140;24.760;2022-11-28T17:27:37;22.20;;;11.10;;
52718;SDS011;38616;42.140;24.760;2022-11-28T17:30:03;19.08;;;10.27;;
52718;SDS011;38616;42.140;24.760;2022-11-28T17:32:28;18.25;;;9.70;;
52718;SDS011;38616;42.140;24.760;2022-11-28T17:34:54;17.15;;;9.20;;
52718;SDS011;38616;42.140;24.760;2022-11-28T17:37:19;18.63;;;9.85;;
52718;SDS011;38616;42.140;24.760;2022-11-28T17:39:44;19.85;;;10.43;;
52718;SDS011;38616;42.140;24.760;2022-11-28T17:42:29;18.95;;;9.95;;
52718;SDS011;38616;42.140;24.760;2022-11-28T17:44:55;16.63;;;9.07;;
52718;SDS011;38616;42.140;24.760;2022-11-28T17:47:20;21.77;;;11.98;;
52718;SDS011;38616;42.140;24.760;2022-11-28T17:49:47;24.38;;;12.43;;
52718;SDS011;38616;42.140;24.760;2022-11-28T17:52:13;19.70;;;10.07;;
52718;SDS011;38616;42.140;24.760;2022-11-28T17:54:39;18.30;;;9.27;;
52718;SDS011;38616;42.140;24.760;2022-11-28T17:57:04;19.15;;;9.23;;
52718;SDS011;38616;42.140;24.760;2022-11-28T17:59:29;16.77;;;8.88;;
52718;SDS011;38616;42.140;24.760;2022-11-28T18:01:56;18.65;;;9.93;;
52718;SDS011;38616;42.140;24.760;2022-11-28T18:04:21;22.40;;;11.52;;
52718;SDS011;38616;42.140;24.760;2022-11-28T18:06:47;34.75;;;17.05;;
52718;SDS011;38616;42.140;24.760;2022-11-28T18:09:13;23.80;;;11.30;;
52718;SDS011;38616;42.140;24.760;2022-11-28T18:11:39;26.65;;;13.20;;
52718;SDS011;38616;42.140;24.760;2022-11-28T18:14:06;19.75;;;10.88;;
52718;SDS011;38616;42.140;24.760;2022-11-28T18:16:31;19.70;;;9.77;;
52718;SDS011;38616;42.140;24.760;2022-11-28T18:18:59;23.10;;;12.45;;
52718;SDS011;38616;42.140;24.760;2022-11-28T18:21:24;18.73;;;9.82;;
52718;SDS011;38616;42.140;24.760;2022-11-28T18:23:50;17.67;;;10.30;;
52718;SDS011;38616;42.140;24.760;2022-11-28T18:26:17;16.80;;;9.57;;
52718;SDS011;38616;42.140;24.760;2022-11-28T18:31:13;16.40;;;8.50;;
52718;SDS011;38616;42.140;24.760;2022-11-28T18:33:42;21.75;;;10.85;;
52718;SDS011;38616;42.140;24.760;2022-11-28T18:38:33;20.35;;;10.13;;
52718;SDS011;38616;42.140;24.760;2022-11-28T18:41:02;25.42;;;12.85;;
52718;SDS011;38616;42.140;24.760;2022-11-28T18:43:31;53.50;;;26.05;;